Time;durP1;ratioP1;P1;durP2;ratioP2;P2;SDS_P1;SDS_P2;PMS_P1;PMS_P2;Temp;Humidity;BMP_temperature;BMP_pressure;BME280_temperature;BME280_humidity;BME280_pressure;Samples;Min_cycle;Max_cycle;Signal;HPM_P1;HPM_P2
2021/12/20 00:00:12;;;;;;;35.72;20.08;;;;;;;;;;4880376;29;20108;-67
2021/12/20 00:02:39;;;;;;;40.97;21.63;;;;;;;;;;4880770;29;20520;-65
2021/12/20 00:05:05;;;;;;;38.75;21.15;;;;;;;;;;4880449;29;20477;-66
2021/12/20 00:07:31;;;;;;;42.13;21.45;;;;;;;;;;4879077;29;20063;-67
2021/12/20 00:09:57;;;;;;;40.13;21.35;;;;;;;;;;4880491;29;20029;-71
2021/12/20 00:12:23;;;;;;;40.25;20.85;;;;;;;;;;4879798;29;20057;-70
2021/12/20 00:14:51;;;;;;;40.17;21.60;;;;;;;;;;4880284;29;20064;-67
2021/12/20 00:17:17;;;;;;;40.85;23.08;;;;;;;;;;4880972;29;20028;-70
2021/12/20 00:19:43;;;;;;;39.70;19.70;;;;;;;;;;4880742;29;20387;-68
2021/12/20 00:22:08;;;;;;;42.20;20.60;;;;;;;;;;4880369;29;20041;-71
2021/12/20 00:24:34;;;;;;;49.30;24.92;;;;;;;;;;4879812;29;20032;-72
2021/12/20 00:27:03;;;;;;;37.90;20.23;;;;;;;;;;4880100;29;20045;-76
2021/12/20 00:29:29;;;;;;;32.00;19.45;;;;;;;;;;4879829;29;20112;-67
2021/12/20 00:31:55;;;;;;;39.70;21.88;;;;;;;;;;4880076;29;20124;-76
2021/12/20 00:34:21;;;;;;;54.13;27.75;;;;;;;;;;4879830;29;20036;-73
2021/12/20 00:36:56;;;;;;;33.67;19.27;;;;;;;;;;4888253;29;20036;-74
2021/12/20 00:42:06;;;;;;;33.65;18.42;;;;;;;;;;4898543;29;20044;-74
2021/12/20 00:44:32;;;;;;;34.97;19.42;;;;;;;;;;4897923;29;20042;-73
2021/12/20 00:46:58;;;;;;;35.97;17.67;;;;;;;;;;4898961;29;20052;-72
2021/12/20 00:49:23;;;;;;;39.30;20.80;;;;;;;;;;4898502;29;20043;-73
2021/12/20 00:51:49;;;;;;;37.28;20.50;;;;;;;;;;4898300;29;20056;-74
2021/12/20 00:54:15;;;;;;;33.80;17.75;;;;;;;;;;4897908;29;20088;-72
2021/12/20 00:56:41;;;;;;;43.15;21.73;;;;;;;;;;4897832;29;20105;-70
2021/12/20 00:59:07;;;;;;;36.88;19.30;;;;;;;;;;4898330;29;20029;-68
2021/12/20 01:01:33;;;;;;;38.47;19.73;;;;;;;;;;4898344;29;20043;-69
2021/12/20 01:03:59;;;;;;;36.90;18.85;;;;;;;;;;4898403;29;20383;-73
2021/12/20 01:06:25;;;;;;;38.33;18.35;;;;;;;;;;4897430;29;20037;-74
2021/12/20 01:08:51;;;;;;;36.35;18.90;;;;;;;;;;4895096;29;20059;-74
2021/12/20 01:11:22;;;;;;;38.83;19.95;;;;;;;;;;4897921;29;20432;-73
2021/12/20 01:13:48;;;;;;;30.95;16.08;;;;;;;;;;4896159;29;20070;-68
2021/12/20 01:16:15;;;;;;;35.47;17.52;;;;;;;;;;4895960;29;20480;-68
2021/12/20 01:18:41;;;;;;;34.97;17.60;;;;;;;;;;4896142;29;20555;-71
2021/12/20 01:21:08;;;;;;;39.72;17.77;;;;;;;;;;4897249;29;20037;-72
2021/12/20 01:23:36;;;;;;;36.00;18.83;;;;;;;;;;4897044;29;20396;-71
2021/12/20 01:26:03;;;;;;;34.75;19.20;;;;;;;;;;4896906;29;20468;-71
2021/12/20 01:28:29;;;;;;;33.00;16.83;;;;;;;;;;4896831;29;20044;-66
2021/12/20 01:30:55;;;;;;;33.10;17.23;;;;;;;;;;4896742;29;20032;-66
2021/12/20 01:33:21;;;;;;;28.48;17.27;;;;;;;;;;4882879;29;20028;-67
2021/12/20 01:35:47;;;;;;;29.58;15.93;;;;;;;;;;4892624;29;20494;-69
2021/12/20 01:38:12;;;;;;;23.63;14.45;;;;;;;;;;4896707;29;20040;-65
2021/12/20 01:40:39;;;;;;;28.75;14.68;;;;;;;;;;4897018;29;20031;-73
2021/12/20 01:43:10;;;;;;;26.77;14.88;;;;;;;;;;4897132;29;20047;-65
2021/12/20 01:45:36;;;;;;;28.20;14.85;;;;;;;;;;4896837;29;20048;-66
2021/12/20 01:48:09;;;;;;;29.10;17.25;;;;;;;;;;4895270;29;20056;-63
2021/12/20 01:50:47;;;;;;;32.28;17.70;;;;;;;;;;4896531;29;20046;-64
2021/12/20 01:53:22;;;;;;;32.75;17.25;;;;;;;;;;4896644;29;20499;-65
2021/12/20 01:55:51;;;;;;;29.05;16.70;;;;;;;;;;4896494;29;20063;-63
2021/12/20 01:58:17;;;;;;;31.63;16.50;;;;;;;;;;4896110;29;20028;-65
2021/12/20 02:03:28;;;;;;;26.08;15.57;;;;;;;;;;4896046;29;20036;-65
2021/12/20 02:05:58;;;;;;;32.55;16.60;;;;;;;;;;4896596;29;20028;-74
2021/12/20 02:08:26;;;;;;;40.05;19.85;;;;;;;;;;4896536;29;20092;-71
2021/12/20 02:11:00;;;;;;;31.67;18.73;;;;;;;;;;4890445;29;20084;-72
2021/12/20 02:13:28;;;;;;;40.03;20.13;;;;;;;;;;4896231;29;20056;-73
2021/12/20 02:15:56;;;;;;;31.95;18.23;;;;;;;;;;4896456;29;20040;-73
2021/12/20 02:18:21;;;;;;;31.23;17.20;;;;;;;;;;4896459;29;20399;-69
2021/12/20 02:20:48;;;;;;;36.55;19.27;;;;;;;;;;4896525;29;20029;-69
2021/12/20 02:23:14;;;;;;;35.78;18.05;;;;;;;;;;4896255;29;20039;-72
2021/12/20 02:25:40;;;;;;;34.00;18.75;;;;;;;;;;4895854;29;20033;-74
2021/12/20 02:28:13;;;;;;;38.08;19.90;;;;;;;;;;4896294;29;20088;-75
2021/12/20 02:38:50;;;;;;;33.83;20.45;;;;;;;;;;4896538;29;20036;-69
2021/12/20 02:41:23;;;;;;;43.55;23.48;;;;;;;;;;4896851;29;20036;-69
2021/12/20 02:43:54;;;;;;;40.67;22.25;;;;;;;;;;4897097;29;20067;-68
2021/12/20 02:48:56;;;;;;;39.50;20.13;;;;;;;;;;4896613;29;20036;-73
2021/12/20 02:51:26;;;;;;;42.08;20.15;;;;;;;;;;4896469;29;20468;-74
2021/12/20 02:53:55;;;;;;;31.55;18.55;;;;;;;;;;4896800;29;20040;-73
2021/12/20 02:56:21;;;;;;;37.60;19.65;;;;;;;;;;4896608;29;20021;-72
2021/12/20 02:58:47;;;;;;;40.13;20.35;;;;;;;;;;4896349;29;20116;-69
2021/12/20 03:01:13;;;;;;;39.13;18.80;;;;;;;;;;4895337;29;20480;-73
2021/12/20 03:03:39;;;;;;;41.10;19.80;;;;;;;;;;4896763;29;20036;-75
2021/12/20 03:06:18;;;;;;;37.67;20.75;;;;;;;;;;4896738;29;20056;-74
2021/12/20 03:08:48;;;;;;;34.10;19.40;;;;;;;;;;4896850;29;20044;-73
2021/12/20 03:11:15;;;;;;;34.38;17.70;;;;;;;;;;4896503;29;20045;-71
2021/12/20 03:13:43;;;;;;;33.05;18.42;;;;;;;;;;4896573;29;20095;-75
2021/12/20 03:16:09;;;;;;;29.70;16.90;;;;;;;;;;4896648;29;20420;-73
2021/12/20 03:18:35;;;;;;;30.52;17.73;;;;;;;;;;4911463;29;20037;-72
2021/12/20 03:21:00;;;;;;;33.60;17.88;;;;;;;;;;4900612;29;20048;-73
2021/12/20 03:23:26;;;;;;;32.05;16.27;;;;;;;;;;4900591;29;20021;-73
2021/12/20 03:25:52;;;;;;;32.45;14.60;;;;;;;;;;4900436;29;20032;-72
2021/12/20 03:28:18;;;;;;;27.45;15.50;;;;;;;;;;4900101;29;20647;-74
2021/12/20 03:30:44;;;;;;;30.58;16.20;;;;;;;;;;4900350;29;20043;-73
2021/12/20 03:33:10;;;;;;;26.90;14.73;;;;;;;;;;4900468;29;20033;-73
2021/12/20 03:35:37;;;;;;;28.88;16.25;;;;;;;;;;4914699;29;20507;-72
2021/12/20 03:38:03;;;;;;;28.95;15.15;;;;;;;;;;4900000;29;20072;-72
2021/12/20 03:40:29;;;;;;;37.47;15.52;;;;;;;;;;4900046;29;20037;-73
2021/12/20 03:42:55;;;;;;;35.78;15.90;;;;;;;;;;4914356;29;20120;-64
2021/12/20 03:45:21;;;;;;;30.50;15.10;;;;;;;;;;4900136;29;20068;-65
2021/12/20 03:47:47;;;;;;;28.67;15.73;;;;;;;;;;4903244;29;20039;-67
2021/12/20 03:50:14;;;;;;;31.80;14.18;;;;;;;;;;4904112;29;20076;-65
2021/12/20 03:52:41;;;;;;;25.65;13.30;;;;;;;;;;4904174;29;20025;-75
2021/12/20 03:55:12;;;;;;;31.20;14.93;;;;;;;;;;4905719;29;20060;-71
2021/12/20 03:57:38;;;;;;;38.28;14.38;;;;;;;;;;4909848;29;20081;-74
2021/12/20 04:00:07;;;;;;;29.95;14.02;;;;;;;;;;4908385;29;20036;-74
2021/12/20 04:02:42;;;;;;;25.50;13.43;;;;;;;;;;4906162;29;20043;-71
2021/12/20 04:05:09;;;;;;;22.98;13.05;;;;;;;;;;4899612;29;20068;-74
2021/12/20 04:07:35;;;;;;;23.20;14.27;;;;;;;;;;4898288;29;20025;-74
2021/12/20 04:10:01;;;;;;;40.03;15.95;;;;;;;;;;4899419;29;20084;-74
2021/12/20 04:12:27;;;;;;;31.75;15.07;;;;;;;;;;4899659;29;20169;-68
2021/12/20 04:14:53;;;;;;;31.23;15.82;;;;;;;;;;4899469;29;20671;-74
2021/12/20 04:17:18;;;;;;;33.05;15.07;;;;;;;;;;4898687;29;20048;-72
2021/12/20 04:19:44;;;;;;;38.33;16.25;;;;;;;;;;4899872;29;20085;-72
2021/12/20 04:22:10;;;;;;;23.38;13.57;;;;;;;;;;4899225;29;20115;-73
2021/12/20 04:24:36;;;;;;;23.70;13.48;;;;;;;;;;4899098;29;20048;-74
2021/12/20 04:27:02;;;;;;;26.50;14.05;;;;;;;;;;4898114;29;20036;-73
2021/12/20 04:29:29;;;;;;;34.65;17.73;;;;;;;;;;4898997;29;20034;-73
2021/12/20 04:31:55;;;;;;;29.58;15.77;;;;;;;;;;4898630;29;20024;-75
2021/12/20 04:34:21;;;;;;;28.35;15.30;;;;;;;;;;4898138;29;20380;-73
2021/12/20 04:36:46;;;;;;;31.55;15.93;;;;;;;;;;4898191;29;20035;-68
2021/12/20 04:39:17;;;;;;;27.92;16.02;;;;;;;;;;4899267;29;20037;-65
2021/12/20 04:41:43;;;;;;;34.50;16.00;;;;;;;;;;4900133;29;20040;-65
2021/12/20 04:44:08;;;;;;;28.75;15.52;;;;;;;;;;4900097;29;20092;-65
2021/12/20 04:46:34;;;;;;;26.88;14.77;;;;;;;;;;4899958;29;20036;-64
2021/12/20 04:49:00;;;;;;;31.13;15.10;;;;;;;;;;4894117;29;20476;-64
2021/12/20 04:51:26;;;;;;;24.67;12.93;;;;;;;;;;4899158;29;20108;-65
2021/12/20 04:53:52;;;;;;;27.38;13.00;;;;;;;;;;4899792;29;20036;-69
2021/12/20 04:56:18;;;;;;;23.05;12.70;;;;;;;;;;4902070;29;20047;-69
2021/12/20 04:58:43;;;;;;;25.83;14.15;;;;;;;;;;4898721;29;20039;-68
2021/12/20 05:01:09;;;;;;;38.53;15.00;;;;;;;;;;4897851;29;20032;-68
2021/12/20 05:03:35;;;;;;;30.88;14.15;;;;;;;;;;4898879;29;20041;-68
2021/12/20 05:06:00;;;;;;;26.38;14.90;;;;;;;;;;4898723;29;20071;-69
2021/12/20 05:08:33;;;;;;;30.02;15.25;;;;;;;;;;4898657;29;20480;-69
2021/12/20 05:11:00;;;;;;;26.02;14.45;;;;;;;;;;4898297;29;20135;-68
2021/12/20 05:13:26;;;;;;;25.08;14.43;;;;;;;;;;4898128;29;20076;-68
2021/12/20 05:15:52;;;;;;;33.33;15.55;;;;;;;;;;4905925;29;20032;-70
2021/12/20 05:18:18;;;;;;;34.83;16.27;;;;;;;;;;4889946;29;20902;-69
2021/12/20 05:20:44;;;;;;;28.10;15.48;;;;;;;;;;4884393;29;20060;-68
2021/12/20 05:23:10;;;;;;;27.42;14.77;;;;;;;;;;4879314;29;20029;-69
2021/12/20 05:25:37;;;;;;;39.95;19.05;;;;;;;;;;4894781;29;20040;-68
2021/12/20 05:28:03;;;;;;;35.85;15.90;;;;;;;;;;4897272;29;20119;-68
2021/12/20 05:30:29;;;;;;;32.25;15.80;;;;;;;;;;4898020;29;20044;-69
2021/12/20 05:32:55;;;;;;;30.27;15.90;;;;;;;;;;4890486;29;20036;-68
2021/12/20 05:35:21;;;;;;;28.23;16.67;;;;;;;;;;4879257;29;20033;-67
2021/12/20 05:37:50;;;;;;;31.50;16.15;;;;;;;;;;4879015;29;20025;-67
2021/12/20 05:40:17;;;;;;;33.17;17.90;;;;;;;;;;4891401;29;20032;-70
2021/12/20 05:42:45;;;;;;;29.52;15.77;;;;;;;;;;4897909;29;20029;-69
2021/12/20 05:45:11;;;;;;;34.40;16.52;;;;;;;;;;4897896;29;20572;-67
2021/12/20 05:47:38;;;;;;;33.38;16.13;;;;;;;;;;4897158;29;20028;-68
2021/12/20 05:50:05;;;;;;;28.00;14.55;;;;;;;;;;4885261;29;20089;-68
2021/12/20 05:52:30;;;;;;;40.20;18.63;;;;;;;;;;4879174;29;20085;-67
2021/12/20 05:54:56;;;;;;;52.95;22.95;;;;;;;;;;4879189;29;20425;-68
2021/12/20 05:57:22;;;;;;;47.42;23.23;;;;;;;;;;4879096;29;20025;-67
2021/12/20 05:59:48;;;;;;;46.55;21.90;;;;;;;;;;4879361;29;20033;-68
2021/12/20 06:02:14;;;;;;;38.85;20.63;;;;;;;;;;4883481;29;20413;-69
2021/12/20 06:04:40;;;;;;;44.95;21.75;;;;;;;;;;4896195;29;20036;-68
2021/12/20 06:07:08;;;;;;;47.17;23.65;;;;;;;;;;4897759;29;20364;-69
2021/12/20 06:09:35;;;;;;;51.22;22.98;;;;;;;;;;4896751;29;20108;-69
2021/12/20 06:12:00;;;;;;;42.38;21.60;;;;;;;;;;4896413;29;20065;-75
2021/12/20 06:14:27;;;;;;;41.97;21.10;;;;;;;;;;4897684;29;20041;-69
2021/12/20 06:16:55;;;;;;;39.40;20.70;;;;;;;;;;4897211;29;20040;-69
2021/12/20 06:19:23;;;;;;;43.95;20.70;;;;;;;;;;4897498;29;20131;-71
2021/12/20 06:21:50;;;;;;;42.10;20.90;;;;;;;;;;4896572;29;20032;-74
2021/12/20 06:24:16;;;;;;;41.97;19.55;;;;;;;;;;4897457;29;20499;-71
2021/12/20 06:26:41;;;;;;;34.22;18.38;;;;;;;;;;4898451;29;20035;-69
2021/12/20 06:29:07;;;;;;;46.92;23.00;;;;;;;;;;4897680;29;20047;-69
2021/12/20 06:31:33;;;;;;;41.42;23.52;;;;;;;;;;4896907;29;20037;-69
2021/12/20 06:33:59;;;;;;;39.15;20.35;;;;;;;;;;4896962;29;20038;-69
2021/12/20 06:36:26;;;;;;;27.92;15.63;;;;;;;;;;4913842;29;20525;-69
2021/12/20 06:38:54;;;;;;;34.08;17.65;;;;;;;;;;4912854;29;20036;-70
2021/12/20 06:41:20;;;;;;;42.70;20.27;;;;;;;;;;4913744;29;20487;-74
2021/12/20 06:43:46;;;;;;;42.38;21.85;;;;;;;;;;4916130;29;20123;-69
2021/12/20 06:46:13;;;;;;;38.92;19.77;;;;;;;;;;4916231;29;20120;-69
2021/12/20 06:48:39;;;;;;;37.80;18.38;;;;;;;;;;4914634;29;20371;-71
2021/12/20 06:51:05;;;;;;;33.70;18.42;;;;;;;;;;4915248;29;20119;-72
2021/12/20 06:53:31;;;;;;;36.35;19.02;;;;;;;;;;4894458;29;20504;-70
2021/12/20 06:55:57;;;;;;;35.67;20.70;;;;;;;;;;4876428;29;20035;-69
2021/12/20 06:58:23;;;;;;;38.97;23.20;;;;;;;;;;4877847;29;20032;-72
2021/12/20 07:00:53;;;;;;;32.40;21.27;;;;;;;;;;4877775;29;20035;-70
2021/12/20 07:03:21;;;;;;;38.50;20.77;;;;;;;;;;4890422;29;20483;-70
2021/12/20 07:05:47;;;;;;;40.53;22.55;;;;;;;;;;4916180;29;20035;-72
2021/12/20 07:08:13;;;;;;;36.22;19.92;;;;;;;;;;4916224;29;20560;-74
2021/12/20 07:10:39;;;;;;;40.50;20.90;;;;;;;;;;4916553;29;20041;-70
2021/12/20 07:13:05;;;;;;;34.28;18.95;;;;;;;;;;4917609;29;20556;-72
2021/12/20 07:15:32;;;;;;;30.90;19.02;;;;;;;;;;4919377;29;20078;-71
2021/12/20 07:17:58;;;;;;;31.55;17.70;;;;;;;;;;4908068;29;20071;-71
2021/12/20 07:20:24;;;;;;;48.20;20.58;;;;;;;;;;4899610;29;20028;-69
2021/12/20 07:22:50;;;;;;;39.42;21.65;;;;;;;;;;4896862;29;20056;-71
2021/12/20 07:25:19;;;;;;;39.08;21.73;;;;;;;;;;4896434;29;20067;-70
2021/12/20 07:27:47;;;;;;;48.47;24.73;;;;;;;;;;4896005;29;20052;-71
2021/12/20 07:30:14;;;;;;;56.58;26.60;;;;;;;;;;4896147;29;20029;-70
2021/12/20 07:32:40;;;;;;;47.38;26.10;;;;;;;;;;4896716;29;20216;-72
2021/12/20 07:35:06;;;;;;;50.03;24.05;;;;;;;;;;4895059;29;20601;-70
2021/12/20 07:37:31;;;;;;;44.80;22.65;;;;;;;;;;4895819;29;20044;-68
2021/12/20 07:39:57;;;;;;;43.10;23.65;;;;;;;;;;4895798;29;20113;-69
2021/12/20 07:42:23;;;;;;;53.60;27.17;;;;;;;;;;4895756;29;20037;-68
2021/12/20 07:44:51;;;;;;;54.67;27.17;;;;;;;;;;4896049;29;20033;-70
2021/12/20 07:47:17;;;;;;;51.58;26.65;;;;;;;;;;4896078;29;20039;-71
2021/12/20 07:49:43;;;;;;;48.88;26.67;;;;;;;;;;4895874;29;20028;-70
2021/12/20 07:52:09;;;;;;;52.28;24.23;;;;;;;;;;4895065;29;20522;-71
2021/12/20 07:54:35;;;;;;;40.70;22.40;;;;;;;;;;4895902;29;20103;-69
2021/12/20 07:57:00;;;;;;;40.63;21.77;;;;;;;;;;4901593;29;20092;-72
2021/12/20 07:59:26;;;;;;;33.33;19.00;;;;;;;;;;4902917;29;20507;-70
2021/12/20 08:01:52;;;;;;;31.65;19.15;;;;;;;;;;4920740;29;20072;-70
2021/12/20 08:04:18;;;;;;;24.58;15.35;;;;;;;;;;4905746;29;20111;-70
2021/12/20 08:06:44;;;;;;;25.67;14.15;;;;;;;;;;4911025;29;20054;-70
2021/12/20 08:09:11;;;;;;;26.92;13.90;;;;;;;;;;4908879;29;20028;-70
2021/12/20 08:11:38;;;;;;;21.80;12.48;;;;;;;;;;4907004;29;20060;-72
2021/12/20 08:14:04;;;;;;;20.98;13.48;;;;;;;;;;4902758;29;20036;-70
2021/12/20 08:16:30;;;;;;;18.60;10.10;;;;;;;;;;4902596;29;20060;-70
2021/12/20 08:18:56;;;;;;;21.30;11.82;;;;;;;;;;4900996;29;20377;-73
2021/12/20 08:21:22;;;;;;;20.30;12.05;;;;;;;;;;4889615;29;20088;-77
2021/12/20 08:23:49;;;;;;;19.20;11.35;;;;;;;;;;4885308;29;20085;-74
2021/12/20 08:26:15;;;;;;;27.20;13.98;;;;;;;;;;4881607;29;20446;-69
2021/12/20 08:28:41;;;;;;;23.40;13.57;;;;;;;;;;4880411;29;20105;-70
2021/12/20 08:31:09;;;;;;;26.80;14.13;;;;;;;;;;4881255;29;20466;-76
2021/12/20 08:33:35;;;;;;;24.80;14.27;;;;;;;;;;4898630;29;20468;-70
2021/12/20 08:36:04;;;;;;;27.95;15.23;;;;;;;;;;4898696;29;20460;-72
2021/12/20 08:38:30;;;;;;;27.98;14.65;;;;;;;;;;4898792;29;20123;-71
2021/12/20 08:40:57;;;;;;;30.75;17.45;;;;;;;;;;4899403;29;20033;-71
2021/12/20 08:43:23;;;;;;;28.00;16.13;;;;;;;;;;4899374;29;20052;-76
2021/12/20 08:45:49;;;;;;;28.27;16.98;;;;;;;;;;4899091;29;20048;-70
2021/12/20 08:48:15;;;;;;;29.52;17.63;;;;;;;;;;4899524;29;20108;-70
2021/12/20 08:50:43;;;;;;;29.05;17.73;;;;;;;;;;4899751;29;20059;-71
2021/12/20 08:53:10;;;;;;;34.70;19.73;;;;;;;;;;4898698;29;20105;-70
2021/12/20 08:55:37;;;;;;;40.17;21.80;;;;;;;;;;4898498;29;20385;-71
2021/12/20 08:58:04;;;;;;;54.30;26.70;;;;;;;;;;4898805;29;20503;-70
2021/12/20 09:00:32;;;;;;;46.70;25.73;;;;;;;;;;4898761;29;20093;-69
2021/12/20 09:02:59;;;;;;;48.40;25.58;;;;;;;;;;4899103;29;20028;-71
2021/12/20 09:05:25;;;;;;;39.63;24.80;;;;;;;;;;4898996;29;20519;-76
2021/12/20 09:07:51;;;;;;;54.40;27.92;;;;;;;;;;4898790;29;20028;-73
2021/12/20 09:10:17;;;;;;;41.22;23.52;;;;;;;;;;4898688;29;20044;-72
2021/12/20 09:12:44;;;;;;;55.33;25.90;;;;;;;;;;4898857;29;20044;-73
2021/12/20 09:15:15;;;;;;;37.55;22.80;;;;;;;;;;4898735;29;20036;-74
2021/12/20 09:17:45;;;;;;;39.70;22.80;;;;;;;;;;4898124;29;20037;-76
2021/12/20 09:20:12;;;;;;;35.70;20.55;;;;;;;;;;4898793;29;20510;-70
2021/12/20 09:22:50;;;;;;;37.35;21.40;;;;;;;;;;4898109;29;20037;-71
2021/12/20 09:25:29;;;;;;;31.63;19.77;;;;;;;;;;4898064;29;20067;-71
2021/12/20 09:27:57;;;;;;;33.95;20.50;;;;;;;;;;4898752;29;20477;-71
2021/12/20 09:30:25;;;;;;;35.28;20.50;;;;;;;;;;4899060;29;20388;-70
2021/12/20 09:32:52;;;;;;;33.83;19.65;;;;;;;;;;4898982;29;20531;-71
2021/12/20 09:35:18;;;;;;;33.03;18.90;;;;;;;;;;4898785;29;20052;-71
2021/12/20 09:37:50;;;;;;;35.22;20.75;;;;;;;;;;4899349;29;20036;-74
2021/12/20 09:40:16;;;;;;;34.83;19.95;;;;;;;;;;4898630;29;20107;-71
2021/12/20 09:42:52;;;;;;;30.95;18.98;;;;;;;;;;4897982;29;20138;-72
2021/12/20 09:45:23;;;;;;;35.75;20.70;;;;;;;;;;4898367;29;20491;-71
2021/12/20 09:47:49;;;;;;;36.08;19.23;;;;;;;;;;4898305;29;20510;-72
2021/12/20 09:50:15;;;;;;;31.35;18.15;;;;;;;;;;4898582;29;20060;-77
2021/12/20 09:52:42;;;;;;;31.95;18.27;;;;;;;;;;4900363;29;20040;-73
2021/12/20 09:55:10;;;;;;;29.98;17.67;;;;;;;;;;4898259;29;20060;-71
2021/12/20 09:57:37;;;;;;;28.05;16.52;;;;;;;;;;4912114;29;20041;-73
2021/12/20 10:00:07;;;;;;;24.48;15.68;;;;;;;;;;4912254;29;20472;-73
2021/12/20 10:02:42;;;;;;;26.42;14.63;;;;;;;;;;4897975;29;20060;-71
2021/12/20 10:05:08;;;;;;;27.08;15.15;;;;;;;;;;4897928;29;20730;-76
2021/12/20 10:07:34;;;;;;;21.58;13.65;;;;;;;;;;4897746;29;20069;-74
2021/12/20 10:10:02;;;;;;;23.25;13.95;;;;;;;;;;4898363;29;20484;-74
2021/12/20 10:12:29;;;;;;;22.95;13.07;;;;;;;;;;4897363;29;20502;-77
2021/12/20 10:15:08;;;;;;;17.30;11.38;;;;;;;;;;4896562;29;20041;-78
2021/12/20 10:17:54;;;;;;;15.38;10.63;;;;;;;;;;4898266;29;20502;-76
2021/12/20 10:20:24;;;;;;;17.00;10.57;;;;;;;;;;4898197;29;20394;-73
2021/12/20 10:23:14;;;;;;;17.50;9.95;;;;;;;;;;4897960;29;20032;-71
2021/12/20 10:25:42;;;;;;;16.88;9.80;;;;;;;;;;4897524;29;20391;-72
2021/12/20 10:28:15;;;;;;;14.32;8.27;;;;;;;;;;4897398;29;20071;-70
2021/12/20 10:30:46;;;;;;;12.50;8.60;;;;;;;;;;4878860;29;20044;-72
2021/12/20 10:33:20;;;;;;;14.85;8.93;;;;;;;;;;4878640;29;20126;-72
2021/12/20 10:35:55;;;;;;;13.20;8.23;;;;;;;;;;4878443;29;20048;-78
2021/12/20 10:38:37;;;;;;;15.48;9.07;;;;;;;;;;4878421;29;20044;-74
2021/12/20 10:41:07;;;;;;;15.82;9.63;;;;;;;;;;4878678;29;20063;-69
2021/12/20 10:43:37;;;;;;;15.90;9.25;;;;;;;;;;4861621;29;20040;-70
2021/12/20 10:46:13;;;;;;;14.65;9.18;;;;;;;;;;4878866;29;20029;-69
2021/12/20 10:48:39;;;;;;;14.02;9.23;;;;;;;;;;4878629;29;20044;-69
2021/12/20 10:51:14;;;;;;;19.73;10.02;;;;;;;;;;4877895;29;20041;-69
2021/12/20 10:53:46;;;;;;;17.75;9.80;;;;;;;;;;4878239;29;20364;-71
2021/12/20 10:56:12;;;;;;;19.45;10.32;;;;;;;;;;4878315;29;20033;-70
2021/12/20 10:58:38;;;;;;;17.88;11.13;;;;;;;;;;4878032;29;20029;-70
2021/12/20 11:02:06;;;;;;;22.38;9.55;;;;;;;;;;4878312;29;20045;-70
2021/12/20 11:04:15;;;;;;;18.17;10.43;;;;;;;;;;4877644;29;20453;-71
2021/12/20 11:09:15;;;;;;;18.52;11.48;;;;;;;;;;4877807;29;20033;-69
2021/12/20 11:11:46;;;;;;;15.65;9.90;;;;;;;;;;4877610;29;20052;-70
2021/12/20 11:14:14;;;;;;;16.83;9.88;;;;;;;;;;4878070;29;20075;-70
2021/12/20 11:17:00;;;;;;;16.67;9.85;;;;;;;;;;4877806;29;20389;-69
2021/12/20 11:19:37;;;;;;;23.23;11.00;;;;;;;;;;4877813;29;20036;-69
2021/12/20 11:22:10;;;;;;;15.88;9.65;;;;;;;;;;4876411;29;20119;-69
2021/12/20 11:25:07;;;;;;;17.07;10.37;;;;;;;;;;4877694;29;20045;-70
2021/12/20 11:27:39;;;;;;;21.40;9.43;;;;;;;;;;4877450;29;20064;-68
2021/12/20 11:30:18;;;;;;;18.88;9.35;;;;;;;;;;4877960;29;20436;-71
2021/12/20 11:32:46;;;;;;;16.33;10.57;;;;;;;;;;4898520;29;20444;-68
2021/12/20 11:35:12;;;;;;;17.42;11.00;;;;;;;;;;4914370;29;20096;-70
2021/12/20 11:37:38;;;;;;;17.30;11.52;;;;;;;;;;4913894;29;20111;-69
2021/12/20 11:40:07;;;;;;;23.63;11.50;;;;;;;;;;4913662;29;20479;-71
2021/12/20 11:42:33;;;;;;;25.75;12.07;;;;;;;;;;4917887;29;20451;-70
2021/12/20 11:45:01;;;;;;;22.75;12.10;;;;;;;;;;4917578;29;20024;-70
2021/12/20 11:47:46;;;;;;;21.05;10.40;;;;;;;;;;4917710;29;20079;-74
2021/12/20 11:50:15;;;;;;;21.67;11.38;;;;;;;;;;4917255;29;20047;-74
2021/12/20 11:52:44;;;;;;;18.40;10.98;;;;;;;;;;4917131;29;20020;-77
2021/12/20 11:55:29;;;;;;;21.40;11.25;;;;;;;;;;4917806;29;20442;-73
2021/12/20 11:58:03;;;;;;;20.60;11.40;;;;;;;;;;4917272;29;20050;-74
2021/12/20 12:00:38;;;;;;;21.30;10.77;;;;;;;;;;4916926;29;20080;-71
2021/12/20 12:03:21;;;;;;;18.05;10.52;;;;;;;;;;4917101;29;20036;-71
2021/12/20 12:05:55;;;;;;;20.90;11.48;;;;;;;;;;4899576;29;20033;-73
2021/12/20 12:08:31;;;;;;;21.05;11.40;;;;;;;;;;4898362;29;20076;-75
2021/12/20 12:10:57;;;;;;;20.55;12.00;;;;;;;;;;4912276;29;20041;-69
2021/12/20 12:13:25;;;;;;;18.60;11.25;;;;;;;;;;4897515;29;20121;-73
2021/12/20 12:15:54;;;;;;;25.20;12.48;;;;;;;;;;4879361;29;20093;-73
2021/12/20 12:18:46;;;;;;;19.77;13.35;;;;;;;;;;4879588;29;20108;-72
2021/12/20 12:21:47;;;;;;;21.83;12.95;;;;;;;;;;4879223;29;20033;-71
2021/12/20 12:24:14;;;;;;;22.58;12.02;;;;;;;;;;4858324;29;20358;-74
2021/12/20 12:26:42;;;;;;;20.05;11.55;;;;;;;;;;4875451;29;20497;-73
2021/12/20 12:29:19;;;;;;;23.95;12.65;;;;;;;;;;4879310;29;20074;-73
2021/12/20 12:31:54;;;;;;;19.83;12.65;;;;;;;;;;4879077;29;20523;-70
2021/12/20 12:34:20;;;;;;;20.27;12.32;;;;;;;;;;4879154;29;20074;-76
2021/12/20 12:36:47;;;;;;;28.00;13.55;;;;;;;;;;4878952;29;20029;-72
2021/12/20 12:39:24;;;;;;;25.73;16.20;;;;;;;;;;4882783;29;20036;-75
2021/12/20 12:41:55;;;;;;;27.88;15.70;;;;;;;;;;4916749;29;20071;-69
2021/12/20 12:44:24;;;;;;;21.75;13.45;;;;;;;;;;4900892;29;20116;-72
2021/12/20 12:47:13;;;;;;;23.00;14.85;;;;;;;;;;4897208;29;20086;-71
2021/12/20 12:49:45;;;;;;;29.00;15.35;;;;;;;;;;4898060;29;20037;-71
2021/12/20 12:52:16;;;;;;;28.17;15.27;;;;;;;;;;4897796;29;20041;-72
2021/12/20 12:54:52;;;;;;;30.48;15.93;;;;;;;;;;4897367;29;20028;-71
2021/12/20 12:57:18;;;;;;;27.23;14.70;;;;;;;;;;4897400;29;20047;-71
2021/12/20 12:59:57;;;;;;;24.38;15.23;;;;;;;;;;4908127;29;20033;-69
2021/12/20 13:02:27;;;;;;;29.63;15.00;;;;;;;;;;4916120;29;20040;-69
2021/12/20 13:05:03;;;;;;;37.47;16.67;;;;;;;;;;4918809;29;20051;-69
2021/12/20 13:07:32;;;;;;;28.08;14.63;;;;;;;;;;4917454;29;20036;-71
2021/12/20 13:10:03;;;;;;;28.52;14.65;;;;;;;;;;4914501;29;20036;-69
2021/12/20 13:15:12;;;;;;;24.92;14.57;;;;;;;;;;4917239;29;20033;-67
2021/12/20 13:17:42;;;;;;;26.90;15.57;;;;;;;;;;4915822;29;20055;-69
2021/12/20 13:20:36;;;;;;;24.90;15.63;;;;;;;;;;4915973;29;20024;-69
2021/12/20 13:23:14;;;;;;;25.63;13.20;;;;;;;;;;4916176;29;20036;-71
2021/12/20 13:26:05;;;;;;;22.02;12.88;;;;;;;;;;4915903;29;20128;-69
2021/12/20 13:28:38;;;;;;;32.47;12.77;;;;;;;;;;4916386;29;20163;-70
2021/12/20 13:31:08;;;;;;;22.53;13.37;;;;;;;;;;4916500;29;20078;-71
2021/12/20 13:33:45;;;;;;;24.77;13.50;;;;;;;;;;4915796;29;20362;-70
2021/12/20 13:36:18;;;;;;;19.02;11.60;;;;;;;;;;4914903;29;20396;-69
2021/12/20 13:38:46;;;;;;;20.92;12.60;;;;;;;;;;4916205;29;20044;-70
2021/12/20 13:41:21;;;;;;;24.98;12.10;;;;;;;;;;4915279;29;20503;-68
2021/12/20 13:43:51;;;;;;;21.65;13.40;;;;;;;;;;4914677;29;20036;-68
2021/12/20 13:46:25;;;;;;;23.77;11.20;;;;;;;;;;4915869;29;20095;-68
2021/12/20 13:49:14;;;;;;;27.60;15.07;;;;;;;;;;4915569;29;20032;-71
2021/12/20 13:51:45;;;;;;;29.23;15.98;;;;;;;;;;4915137;29;20127;-70
2021/12/20 13:54:24;;;;;;;28.38;13.48;;;;;;;;;;4915241;29;20044;-70
2021/12/20 13:56:59;;;;;;;22.38;13.52;;;;;;;;;;4915310;29;20043;-73
2021/12/20 13:59:28;;;;;;;23.83;11.98;;;;;;;;;;4914488;29;20079;-70
2021/12/20 14:01:55;;;;;;;23.70;13.05;;;;;;;;;;4915235;29;20071;-73
2021/12/20 14:04:41;;;;;;;19.58;11.18;;;;;;;;;;4915020;29;20091;-69
2021/12/20 14:07:27;;;;;;;20.30;11.48;;;;;;;;;;4930176;29;20040;-73
2021/12/20 14:10:21;;;;;;;24.50;11.80;;;;;;;;;;4908307;29;20040;-71
2021/12/20 14:13:00;;;;;;;25.50;12.75;;;;;;;;;;4896767;29;20045;-70
2021/12/20 14:15:31;;;;;;;16.77;10.35;;;;;;;;;;4896677;29;20037;-70
2021/12/20 14:18:04;;;;;;;21.52;11.70;;;;;;;;;;4896263;29;20383;-70
2021/12/20 14:20:51;;;;;;;18.52;11.40;;;;;;;;;;4896714;29;20036;-69
2021/12/20 14:23:17;;;;;;;22.23;11.85;;;;;;;;;;4895392;29;20033;-70
2021/12/20 14:25:45;;;;;;;16.75;10.90;;;;;;;;;;4895655;29;20384;-70
2021/12/20 14:28:18;;;;;;;21.80;12.63;;;;;;;;;;4896351;29;20418;-69
2021/12/20 14:30:56;;;;;;;20.98;11.13;;;;;;;;;;4896033;29;20059;-70
2021/12/20 14:33:34;;;;;;;21.60;12.73;;;;;;;;;;4896434;29;20412;-69
2021/12/20 14:36:10;;;;;;;23.95;12.70;;;;;;;;;;4896272;29;20043;-69
2021/12/20 14:38:43;;;;;;;25.40;13.73;;;;;;;;;;4895507;29;20087;-69
2021/12/20 14:41:15;;;;;;;;;;;;;;;;;;4890710;29;20048;-67
2021/12/20 14:43:42;;;;;;;28.23;14.48;;;;;;;;;;4895081;29;20422;-69
2021/12/20 14:46:11;;;;;;;25.88;13.35;;;;;;;;;;4897422;29;20021;-72
2021/12/20 14:48:49;;;;;;;21.58;12.90;;;;;;;;;;4895926;29;20036;-74
2021/12/20 14:51:26;;;;;;;42.60;23.00;;;;;;;;;;4893526;29;20053;-69